sensor_id;sensor_type;location;lat;lon;timestamp;pressure;altitude;pressure_sealevel;temperature;humidity
26978;BME280;56314;48.088;11.642;2023-07-28T00:02:08;94858.31;;;15.50;84.17
26978;BME280;56314;48.088;11.642;2023-07-28T00:04:34;94850.53;;;15.49;84.70
26978;BME280;56314;48.088;11.642;2023-07-28T00:07:00;94850.53;;;15.49;84.33
26978;BME280;56314;48.088;11.642;2023-07-28T00:09:25;94854.50;;;15.45;84.84
26978;BME280;56314;48.088;11.642;2023-07-28T00:11:51;94851.81;;;15.36;84.61
26978;BME280;56314;48.088;11.642;2023-07-28T00:14:16;94850.81;;;15.29;85.44
26978;BME280;56314;48.088;11.642;2023-07-28T00:16:42;94849.81;;;15.30;85.35
26978;BME280;56314;48.088;11.642;2023-07-28T00:19:07;94847.31;;;15.29;85.56
26978;BME280;56314;48.088;11.642;2023-07-28T00:21:32;94845.84;;;15.26;85.74
26978;BME280;56314;48.088;11.642;2023-07-28T00:23:58;94842.38;;;15.26;86.51
26978;BME280;56314;48.088;11.642;2023-07-28T00:26:23;94845.34;;;15.22;86.99
26978;BME280;56314;48.088;11.642;2023-07-28T00:28:48;94849.13;;;15.20;87.40
26978;BME280;56314;48.088;11.642;2023-07-28T00:31:14;94846.81;;;15.17;87.75
26978;BME280;56314;48.088;11.642;2023-07-28T00:33:39;94843.84;;;15.20;86.94
26978;BME280;56314;48.088;11.642;2023-07-28T00:36:04;94845.97;;;15.16;86.63
26978;BME280;56314;48.088;11.642;2023-07-28T00:38:30;94852.78;;;15.19;85.51
26978;BME280;56314;48.088;11.642;2023-07-28T00:40:55;94856.22;;;15.19;84.66
26978;BME280;56314;48.088;11.642;2023-07-28T00:43:20;94849.94;;;15.20;83.64
26978;BME280;56314;48.088;11.642;2023-07-28T00:45:46;94856.09;;;15.21;82.23
26978;BME280;56314;48.088;11.642;2023-07-28T00:48:13;94851.63;;;15.21;82.04
26978;BME280;56314;48.088;11.642;2023-07-28T00:50:41;94852.78;;;15.19;81.91
26978;BME280;56314;48.088;11.642;2023-07-28T00:53:08;94848.59;;;15.16;81.90
26978;BME280;56314;48.088;11.642;2023-07-28T00:55:34;94855.72;;;15.16;82.26
26978;BME280;56314;48.088;11.642;2023-07-28T00:57:59;94850.13;;;15.19;81.36
26978;BME280;56314;48.088;11.642;2023-07-28T01:00:25;94850.81;;;15.21;80.66
26978;BME280;56314;48.088;11.642;2023-07-28T01:02:50;94840.22;;;15.21;80.50
26978;BME280;56314;48.088;11.642;2023-07-28T01:05:16;94848.78;;;15.23;80.57
26978;BME280;56314;48.088;11.642;2023-07-28T01:10:30;94839.88;;;15.24;79.81
26978;BME280;56314;48.088;11.642;2023-07-28T01:12:56;94841.41;;;15.27;79.45
26978;BME280;56314;48.088;11.642;2023-07-28T01:15:21;94847.50;;;15.27;80.50
26978;BME280;56314;48.088;11.642;2023-07-28T01:17:47;94854.28;;;15.30;79.55
26978;BME280;56314;48.088;11.642;2023-07-28T01:20:12;94851.31;;;15.33;80.95
26978;BME280;56314;48.088;11.642;2023-07-28T01:23:03;94845.72;;;15.36;80.64
26978;BME280;56314;48.088;11.642;2023-07-28T01:28:22;94835.94;;;15.36;80.04
26978;BME280;56314;48.088;11.642;2023-07-28T01:30:47;94848.03;;;15.39;79.50
26978;BME280;56314;48.088;11.642;2023-07-28T01:33:13;94848.19;;;15.37;78.47
26978;BME280;56314;48.088;11.642;2023-07-28T01:35:38;94849.53;;;15.42;78.60
26978;BME280;56314;48.088;11.642;2023-07-28T01:38:04;94843.56;;;15.39;78.44
26978;BME280;56314;48.088;11.642;2023-07-28T01:40:30;94842.25;;;15.44;79.50
26978;BME280;56314;48.088;11.642;2023-07-28T01:42:55;94845.09;;;15.50;80.93
26978;BME280;56314;48.088;11.642;2023-07-28T01:45:20;94838.28;;;15.39;81.23
26978;BME280;56314;48.088;11.642;2023-07-28T01:47:46;94832.31;;;15.37;80.95
26978;BME280;56314;48.088;11.642;2023-07-28T01:50:11;94836.44;;;15.32;81.61
26978;BME280;56314;48.088;11.642;2023-07-28T01:52:36;94843.50;;;15.15;81.92
26978;BME280;56314;48.088;11.642;2023-07-28T01:55:02;94837.19;;;15.07;82.21
26978;BME280;56314;48.088;11.642;2023-07-28T01:57:27;94838.66;;;15.02;82.59
26978;BME280;56314;48.088;11.642;2023-07-28T01:59:54;94840.81;;;15.06;82.30
26978;BME280;56314;48.088;11.642;2023-07-28T02:02:19;94841.94;;;15.04;82.75
26978;BME280;56314;48.088;11.642;2023-07-28T02:04:45;94841.44;;;15.00;81.56
26978;BME280;56314;48.088;11.642;2023-07-28T02:07:11;94846.75;;;15.00;79.92
26978;BME280;56314;48.088;11.642;2023-07-28T02:09:36;94843.28;;;15.00;79.03
26978;BME280;56314;48.088;11.642;2023-07-28T02:12:01;94843.78;;;15.03;78.85
26978;BME280;56314;48.088;11.642;2023-07-28T02:14:27;94847.59;;;15.01;79.66
26978;BME280;56314;48.088;11.642;2023-07-28T02:16:52;94849.75;;;15.05;78.59
26978;BME280;56314;48.088;11.642;2023-07-28T02:19:17;94848.75;;;15.06;77.42
26978;BME280;56314;48.088;11.642;2023-07-28T02:21:43;94843.31;;;15.08;76.54
26978;BME280;56314;48.088;11.642;2023-07-28T02:24:11;94847.59;;;15.09;76.60
26978;BME280;56314;48.088;11.642;2023-07-28T02:26:36;94849.94;;;15.12;76.16
26978;BME280;56314;48.088;11.642;2023-07-28T02:29:02;94847.63;;;15.17;76.02
26978;BME280;56314;48.088;11.642;2023-07-28T02:31:27;94842.50;;;15.16;75.48
26978;BME280;56314;48.088;11.642;2023-07-28T02:33:52;94843.31;;;15.16;75.58
26978;BME280;56314;48.088;11.642;2023-07-28T02:36:18;94837.38;;;15.14;75.57
26978;BME280;56314;48.088;11.642;2023-07-28T02:38:43;94845.31;;;15.14;76.33
26978;BME280;56314;48.088;11.642;2023-07-28T02:41:08;94841.16;;;15.12;75.95
26978;BME280;56314;48.088;11.642;2023-07-28T02:43:34;94844.47;;;15.14;75.66
26978;BME280;56314;48.088;11.642;2023-07-28T02:46:00;94838.19;;;15.15;75.29
26978;BME280;56314;48.088;11.642;2023-07-28T02:48:25;94839.19;;;15.14;75.73
26978;BME280;56314;48.088;11.642;2023-07-28T02:50:51;94848.09;;;15.13;75.36
26978;BME280;56314;48.088;11.642;2023-07-28T02:53:17;94847.59;;;15.09;75.89
26978;BME280;56314;48.088;11.642;2023-07-28T02:55:44;94845.63;;;15.11;75.59
26978;BME280;56314;48.088;11.642;2023-07-28T02:58:10;94845.13;;;15.07;76.57
26978;BME280;56314;48.088;11.642;2023-07-28T03:00:43;94843.59;;;15.05;76.97
26978;BME280;56314;48.088;11.642;2023-07-28T03:03:09;94838.19;;;15.06;75.39
26978;BME280;56314;48.088;11.642;2023-07-28T03:05:38;94843.94;;;15.02;75.53
26978;BME280;56314;48.088;11.642;2023-07-28T03:08:04;94836.66;;;14.96;76.78
26978;BME280;56314;48.088;11.642;2023-07-28T03:10:30;94836.81;;;14.94;76.98
26978;BME280;56314;48.088;11.642;2023-07-28T03:12:56;94835.97;;;14.93;76.44
26978;BME280;56314;48.088;11.642;2023-07-28T03:15:21;94840.44;;;14.93;75.99
26978;BME280;56314;48.088;11.642;2023-07-28T03:17:50;94844.75;;;14.94;75.36
26978;BME280;56314;48.088;11.642;2023-07-28T03:20:16;94845.41;;;14.96;75.87
26978;BME280;56314;48.088;11.642;2023-07-28T03:22:42;94846.22;;;14.97;75.08
26978;BME280;56314;48.088;11.642;2023-07-28T03:25:08;94845.25;;;14.98;75.59
26978;BME280;56314;48.088;11.642;2023-07-28T03:27:33;94840.94;;;14.97;75.60
26978;BME280;56314;48.088;11.642;2023-07-28T03:29:59;94837.63;;;14.95;76.29
26978;BME280;56314;48.088;11.642;2023-07-28T03:32:24;94844.56;;;14.96;76.58
26978;BME280;56314;48.088;11.642;2023-07-28T03:34:50;94841.31;;;15.02;77.79
26978;BME280;56314;48.088;11.642;2023-07-28T03:37:15;94846.75;;;15.00;77.71
26978;BME280;56314;48.088;11.642;2023-07-28T03:39:40;94846.06;;;14.98;77.61
26978;BME280;56314;48.088;11.642;2023-07-28T03:42:06;94850.53;;;14.98;76.69
26978;BME280;56314;48.088;11.642;2023-07-28T03:44:32;94850.56;;;15.06;78.49
26978;BME280;56314;48.088;11.642;2023-07-28T03:46:57;94852.38;;;15.05;77.78
26978;BME280;56314;48.088;11.642;2023-07-28T03:49:23;94845.75;;;15.01;78.26
26978;BME280;56314;48.088;11.642;2023-07-28T03:51:48;94845.44;;;15.04;77.53
26978;BME280;56314;48.088;11.642;2023-07-28T03:54:13;94847.09;;;15.05;76.65
26978;BME280;56314;48.088;11.642;2023-07-28T03:56:39;94847.91;;;15.06;75.98
26978;BME280;56314;48.088;11.642;2023-07-28T03:59:04;94850.06;;;15.11;76.03
26978;BME280;56314;48.088;11.642;2023-07-28T04:01:30;94841.03;;;15.13;76.74
26978;BME280;56314;48.088;11.642;2023-07-28T04:03:56;94843.66;;;15.13;76.48
26978;BME280;56314;48.088;11.642;2023-07-28T04:06:48;94848.78;;;15.15;76.46
26978;BME280;56314;48.088;11.642;2023-07-28T04:09:19;94843.00;;;15.19;76.06
26978;BME280;56314;48.088;11.642;2023-07-28T04:11:44;94837.22;;;15.24;75.62
26978;BME280;56314;48.088;11.642;2023-07-28T04:14:10;94833.97;;;15.30;75.79
26978;BME280;56314;48.088;11.642;2023-07-28T04:16:35;94837.59;;;15.29;75.50
26978;BME280;56314;48.088;11.642;2023-07-28T04:19:00;94838.06;;;15.24;75.74
26978;BME280;56314;48.088;11.642;2023-07-28T04:21:26;94846.50;;;15.28;75.46
26978;BME280;56314;48.088;11.642;2023-07-28T04:23:52;94843.03;;;15.28;75.53
26978;BME280;56314;48.088;11.642;2023-07-28T04:26:17;94855.97;;;15.39;75.14
26978;BME280;56314;48.088;11.642;2023-07-28T04:28:43;94845.88;;;15.43;75.05
26978;BME280;56314;48.088;11.642;2023-07-28T04:31:08;94837.59;;;15.46;75.19
26978;BME280;56314;48.088;11.642;2023-07-28T04:33:33;94838.81;;;15.51;75.00
26978;BME280;56314;48.088;11.642;2023-07-28T04:35:59;94838.94;;;15.58;75.38
26978;BME280;56314;48.088;11.642;2023-07-28T04:38:24;94843.59;;;15.64;74.96
26978;BME280;56314;48.088;11.642;2023-07-28T04:40:50;94850.38;;;15.67;75.62
26978;BME280;56314;48.088;11.642;2023-07-28T04:43:15;94845.59;;;15.70;76.06
26978;BME280;56314;48.088;11.642;2023-07-28T04:45:40;94843.97;;;15.69;76.06
26978;BME280;56314;48.088;11.642;2023-07-28T04:48:06;94843.28;;;15.67;75.83
26978;BME280;56314;48.088;11.642;2023-07-28T04:50:31;94844.94;;;15.68;76.29
26978;BME280;56314;48.088;11.642;2023-07-28T04:52:59;94845.13;;;15.75;75.46
26978;BME280;56314;48.088;11.642;2023-07-28T04:55:24;94846.09;;;15.82;75.86
26978;BME280;56314;48.088;11.642;2023-07-28T04:57:52;94855.91;;;15.98;74.53
26978;BME280;56314;48.088;11.642;2023-07-28T05:00:17;94863.03;;;16.06;74.06
26978;BME280;56314;48.088;11.642;2023-07-28T05:02:43;94859.88;;;16.11;74.73
26978;BME280;56314;48.088;11.642;2023-07-28T05:05:08;94856.41;;;16.02;75.60
26978;BME280;56314;48.088;11.642;2023-07-28T05:07:33;94866.69;;;15.97;78.27
26978;BME280;56314;48.088;11.642;2023-07-28T05:09:59;94869.31;;;15.97;78.17
26978;BME280;56314;48.088;11.642;2023-07-28T05:12:24;94851.28;;;15.92;79.09
26978;BME280;56314;48.088;11.642;2023-07-28T05:14:49;94861.03;;;15.92;80.37
26978;BME280;56314;48.088;11.642;2023-07-28T05:17:15;94875.44;;;15.97;81.18
26978;BME280;56314;48.088;11.642;2023-07-28T05:19:40;94870.13;;;15.97;80.83
26978;BME280;56314;48.088;11.642;2023-07-28T05:22:06;94870.31;;;15.96;80.84
26978;BME280;56314;48.088;11.642;2023-07-28T05:24:32;94866.31;;;16.00;82.71
26978;BME280;56314;48.088;11.642;2023-07-28T05:26:58;94867.97;;;16.01;83.56
26978;BME280;56314;48.088;11.642;2023-07-28T05:29:23;94876.75;;;16.02;82.30
26978;BME280;56314;48.088;11.642;2023-07-28T05:31:48;94882.22;;;16.08;82.88
26978;BME280;56314;48.088;11.642;2023-07-28T05:34:14;94879.91;;;16.22;83.10
26978;BME280;56314;48.088;11.642;2023-07-28T05:36:39;94885.53;;;16.27;83.86
26978;BME280;56314;48.088;11.642;2023-07-28T05:39:05;94889.34;;;16.33;85.49
26978;BME280;56314;48.088;11.642;2023-07-28T05:41:30;94886.03;;;16.39;85.52
26978;BME280;56314;48.088;11.642;2023-07-28T05:43:55;94884.03;;;16.49;85.58
26978;BME280;56314;48.088;11.642;2023-07-28T05:46:21;94892.13;;;16.64;83.13
26978;BME280;56314;48.088;11.642;2023-07-28T05:48:46;94894.06;;;16.87;81.78
26978;BME280;56314;48.088;11.642;2023-07-28T05:51:12;94884.78;;;16.99;79.94
26978;BME280;56314;48.088;11.642;2023-07-28T05:53:37;94885.91;;;17.05;78.75
26978;BME280;56314;48.088;11.642;2023-07-28T05:56:03;94883.41;;;17.12;78.59
26978;BME280;56314;48.088;11.642;2023-07-28T05:58:28;94886.66;;;17.22;77.12
26978;BME280;56314;48.088;11.642;2023-07-28T06:00:54;94897.09;;;17.32;77.04
26978;BME280;56314;48.088;11.642;2023-07-28T06:03:19;94894.38;;;17.40;76.46
26978;BME280;56314;48.088;11.642;2023-07-28T06:05:44;94901.50;;;17.48;76.21
26978;BME280;56314;48.088;11.642;2023-07-28T06:08:10;94902.41;;;17.63;75.88
26978;BME280;56314;48.088;11.642;2023-07-28T06:10:35;94899.19;;;17.76;74.90
26978;BME280;56314;48.088;11.642;2023-07-28T06:13:01;94905.84;;;18.27;72.22
26978;BME280;56314;48.088;11.642;2023-07-28T06:15:27;94910.19;;;18.43;71.86
26978;BME280;56314;48.088;11.642;2023-07-28T06:17:52;94901.63;;;19.09;70.45
26978;BME280;56314;48.088;11.642;2023-07-28T06:20:17;94911.03;;;20.80;62.85
26978;BME280;56314;48.088;11.642;2023-07-28T06:22:43;94904.78;;;21.30;60.71
26978;BME280;56314;48.088;11.642;2023-07-28T06:25:08;94905.09;;;21.55;60.39
26978;BME280;56314;48.088;11.642;2023-07-28T06:27:33;94906.78;;;21.21;58.95
26978;BME280;56314;48.088;11.642;2023-07-28T06:29:59;94908.63;;;21.20;59.22
26978;BME280;56314;48.088;11.642;2023-07-28T06:32:24;94913.38;;;21.60;57.53
26978;BME280;56314;48.088;11.642;2023-07-28T06:34:50;94913.13;;;22.17;55.55
26978;BME280;56314;48.088;11.642;2023-07-28T06:37:16;94922.47;;;21.73;55.67
26978;BME280;56314;48.088;11.642;2023-07-28T06:39:42;94930.44;;;21.24;57.36
26978;BME280;56314;48.088;11.642;2023-07-28T06:42:07;94933.03;;;20.82;58.39
26978;BME280;56314;48.088;11.642;2023-07-28T06:44:32;94931.63;;;20.43;58.56
26978;BME280;56314;48.088;11.642;2023-07-28T06:46:58;94934.09;;;21.58;55.70
26978;BME280;56314;48.088;11.642;2023-07-28T06:49:23;94926.59;;;22.44;52.90
26978;BME280;56314;48.088;11.642;2023-07-28T06:51:48;94923.72;;;22.79;53.33
26978;BME280;56314;48.088;11.642;2023-07-28T06:54:14;94931.97;;;23.77;48.78
26978;BME280;56314;48.088;11.642;2023-07-28T06:56:40;94920.63;;;24.84;45.57
26978;BME280;56314;48.088;11.642;2023-07-28T06:59:06;94923.34;;;24.52;45.14
26978;BME280;56314;48.088;11.642;2023-07-28T07:01:32;94924.97;;;25.11;43.69
26978;BME280;56314;48.088;11.642;2023-07-28T07:03:57;94932.78;;;25.93;42.80
26978;BME280;56314;48.088;11.642;2023-07-28T07:06:23;94927.34;;;26.31;41.69
26978;BME280;56314;48.088;11.642;2023-07-28T07:08:48;94931.59;;;26.50;40.96
26978;BME280;56314;48.088;11.642;2023-07-28T07:11:13;94921.06;;;27.15;39.51
26978;BME280;56314;48.088;11.642;2023-07-28T07:13:39;94908.78;;;27.95;38.82
26978;BME280;56314;48.088;11.642;2023-07-28T07:16:05;94911.66;;;28.64;37.21
26978;BME280;56314;48.088;11.642;2023-07-28T07:18:31;94917.31;;;29.30;35.68
26978;BME280;56314;48.088;11.642;2023-07-28T07:21:01;94911.72;;;29.54;34.32
26978;BME280;56314;48.088;11.642;2023-07-28T07:23:28;94925.13;;;27.89;37.52
26978;BME280;56314;48.088;11.642;2023-07-28T07:25:53;94929.88;;;26.56;41.08
26978;BME280;56314;48.088;11.642;2023-07-28T07:28:18;94933.16;;;25.16;43.32
26978;BME280;56314;48.088;11.642;2023-07-28T07:30:44;94939.78;;;24.31;45.28
26978;BME280;56314;48.088;11.642;2023-07-28T07:33:10;94935.22;;;23.99;47.57
26978;BME280;56314;48.088;11.642;2023-07-28T07:35:36;94934.19;;;24.71;44.83
26978;BME280;56314;48.088;11.642;2023-07-28T07:38:03;94933.44;;;24.25;46.25
26978;BME280;56314;48.088;11.642;2023-07-28T07:40:28;94931.22;;;23.56;47.76
26978;BME280;56314;48.088;11.642;2023-07-28T07:42:54;94937.28;;;23.31;49.28
26978;BME280;56314;48.088;11.642;2023-07-28T07:45:19;94928.78;;;23.48;48.88
26978;BME280;56314;48.088;11.642;2023-07-28T07:47:44;94928.13;;;24.11;48.83
26978;BME280;56314;48.088;11.642;2023-07-28T07:50:11;94931.00;;;25.69;45.20
26978;BME280;56314;48.088;11.642;2023-07-28T07:52:37;94915.91;;;27.13;42.43
26978;BME280;56314;48.088;11.642;2023-07-28T07:55:04;94925.94;;;26.70;41.52
26978;BME280;56314;48.088;11.642;2023-07-28T07:57:30;94922.22;;;27.07;41.78
26978;BME280;56314;48.088;11.642;2023-07-28T07:59:57;94929.09;;;26.25;42.86
26978;BME280;56314;48.088;11.642;2023-07-28T08:02:23;94931.16;;;25.55;45.39
26978;BME280;56314;48.088;11.642;2023-07-28T08:04:48;94934.97;;;25.22;46.53
26978;BME280;56314;48.088;11.642;2023-07-28T08:07:13;94920.06;;;26.19;44.71
26978;BME280;56314;48.088;11.642;2023-07-28T08:09:41;94917.47;;;26.24;44.10
26978;BME280;56314;48.088;11.642;2023-07-28T08:12:07;94921.97;;;25.63;45.42
26978;BME280;56314;48.088;11.642;2023-07-28T08:14:33;94928.88;;;25.89;45.46
26978;BME280;56314;48.088;11.642;2023-07-28T08:16:58;94914.97;;;27.19;43.11
26978;BME280;56314;48.088;11.642;2023-07-28T08:19:23;94917.38;;;28.67;40.58
26978;BME280;56314;48.088;11.642;2023-07-28T08:21:51;94913.31;;;30.17;37.76
26978;BME280;56314;48.088;11.642;2023-07-28T08:24:16;94913.31;;;30.44;36.73
26978;BME280;56314;48.088;11.642;2023-07-28T08:26:42;94913.06;;;30.18;37.61
26978;BME280;56314;48.088;11.642;2023-07-28T08:29:07;94919.50;;;30.39;37.22
26978;BME280;56314;48.088;11.642;2023-07-28T08:31:32;94910.34;;;30.18;37.14
26978;BME280;56314;48.088;11.642;2023-07-28T08:33:58;94915.44;;;30.15;37.70
26978;BME280;56314;48.088;11.642;2023-07-28T08:36:23;94913.16;;;30.83;36.14
26978;BME280;56314;48.088;11.642;2023-07-28T08:38:48;94921.03;;;31.17;35.73
26978;BME280;56314;48.088;11.642;2023-07-28T08:41:14;94905.56;;;31.61;35.03
26978;BME280;56314;48.088;11.642;2023-07-28T08:43:39;94910.63;;;31.95;34.21
26978;BME280;56314;48.088;11.642;2023-07-28T08:46:05;94922.41;;;31.68;34.35
26978;BME280;56314;48.088;11.642;2023-07-28T08:48:30;94919.56;;;31.42;34.05
26978;BME280;56314;48.088;11.642;2023-07-28T08:50:56;94926.66;;;31.48;34.04
26978;BME280;56314;48.088;11.642;2023-07-28T08:53:22;94920.03;;;30.96;35.64
26978;BME280;56314;48.088;11.642;2023-07-28T08:55:47;94924.66;;;30.41;36.32
26978;BME280;56314;48.088;11.642;2023-07-28T08:58:14;94918.06;;;30.86;35.93
26978;BME280;56314;48.088;11.642;2023-07-28T09:00:40;94917.22;;;31.13;35.45
26978;BME280;56314;48.088;11.642;2023-07-28T09:03:08;94924.94;;;30.99;36.33
26978;BME280;56314;48.088;11.642;2023-07-28T09:05:34;94929.88;;;30.75;36.29
26978;BME280;56314;48.088;11.642;2023-07-28T09:07:59;94931.38;;;30.11;36.95
26978;BME280;56314;48.088;11.642;2023-07-28T09:10:24;94939.25;;;29.51;37.43
26978;BME280;56314;48.088;11.642;2023-07-28T09:12:50;94936.19;;;28.91;38.65
26978;BME280;56314;48.088;11.642;2023-07-28T09:15:16;94932.63;;;28.27;39.04
26978;BME280;56314;48.088;11.642;2023-07-28T09:17:44;94942.28;;;27.71;40.11
26978;BME280;56314;48.088;11.642;2023-07-28T09:20:13;94950.56;;;26.86;41.51
26978;BME280;56314;48.088;11.642;2023-07-28T09:22:39;94951.19;;;26.57;42.92
26978;BME280;56314;48.088;11.642;2023-07-28T09:25:15;94950.34;;;26.15;43.67
26978;BME280;56314;48.088;11.642;2023-07-28T09:27:43;94950.56;;;25.94;44.02
26978;BME280;56314;48.088;11.642;2023-07-28T09:30:14;94949.59;;;25.70;45.31
26978;BME280;56314;48.088;11.642;2023-07-28T09:32:46;94956.31;;;25.42;45.25
26978;BME280;56314;48.088;11.642;2023-07-28T09:35:13;94957.94;;;25.18;46.27
26978;BME280;56314;48.088;11.642;2023-07-28T09:37:43;94960.00;;;24.97;47.31
26978;BME280;56314;48.088;11.642;2023-07-28T09:40:14;94958.50;;;24.76;48.30
26978;BME280;56314;48.088;11.642;2023-07-28T09:42:41;94967.16;;;24.78;47.75
26978;BME280;56314;48.088;11.642;2023-07-28T09:45:07;94954.03;;;24.63;48.24
26978;BME280;56314;48.088;11.642;2023-07-28T09:47:37;94965.56;;;24.38;47.13
26978;BME280;56314;48.088;11.642;2023-07-28T09:50:07;94969.56;;;24.22;48.80
26978;BME280;56314;48.088;11.642;2023-07-28T09:52:46;94974.13;;;24.15;48.87
26978;BME280;56314;48.088;11.642;2023-07-28T09:55:15;94968.63;;;24.03;48.13
26978;BME280;56314;48.088;11.642;2023-07-28T09:57:52;94974.41;;;23.93;48.53
26978;BME280;56314;48.088;11.642;2023-07-28T10:00:20;94960.22;;;23.86;48.79
26978;BME280;56314;48.088;11.642;2023-07-28T10:02:46;94967.63;;;23.84;49.34
26978;BME280;56314;48.088;11.642;2023-07-28T10:05:12;94959.19;;;23.80;49.99
26978;BME280;56314;48.088;11.642;2023-07-28T10:07:43;94957.53;;;23.86;50.64
26978;BME280;56314;48.088;11.642;2023-07-28T10:10:11;94953.19;;;23.98;50.73
26978;BME280;56314;48.088;11.642;2023-07-28T10:12:47;94952.28;;;24.11;49.85
26978;BME280;56314;48.088;11.642;2023-07-28T10:15:15;94948.06;;;24.29;49.76
26978;BME280;56314;48.088;11.642;2023-07-28T10:17:46;94948.00;;;24.36;49.60
26978;BME280;56314;48.088;11.642;2023-07-28T10:22:53;94950.06;;;24.40;48.27
26978;BME280;56314;48.088;11.642;2023-07-28T10:25:25;94963.03;;;24.43;47.53
26978;BME280;56314;48.088;11.642;2023-07-28T10:27:50;94962.38;;;24.48;47.43
26978;BME280;56314;48.088;11.642;2023-07-28T10:30:16;94952.88;;;24.52;48.51
26978;BME280;56314;48.088;11.642;2023-07-28T10:32:48;94958.13;;;24.40;48.07
26978;BME280;56314;48.088;11.642;2023-07-28T10:37:44;94961.06;;;24.25;47.47
26978;BME280;56314;48.088;11.642;2023-07-28T10:42:51;94970.63;;;24.15;46.98
26978;BME280;56314;48.088;11.642;2023-07-28T10:45:17;94965.91;;;24.10;47.86
26978;BME280;56314;48.088;11.642;2023-07-28T10:47:44;94957.88;;;24.10;47.31
26978;BME280;56314;48.088;11.642;2023-07-28T10:50:10;94977.06;;;24.07;46.85
26978;BME280;56314;48.088;11.642;2023-07-28T10:52:45;94977.31;;;23.98;47.24
26978;BME280;56314;48.088;11.642;2023-07-28T10:55:17;94980.00;;;23.98;47.87
26978;BME280;56314;48.088;11.642;2023-07-28T10:57:46;94976.72;;;23.83;47.56
26978;BME280;56314;48.088;11.642;2023-07-28T11:00:14;94980.81;;;23.86;48.46
26978;BME280;56314;48.088;11.642;2023-07-28T11:02:47;94979.56;;;23.88;49.83
26978;BME280;56314;48.088;11.642;2023-07-28T11:07:44;94983.91;;;23.89;48.68
26978;BME280;56314;48.088;11.642;2023-07-28T11:10:13;94985.59;;;23.77;48.25
26978;BME280;56314;48.088;11.642;2023-07-28T11:12:49;94986.25;;;23.65;48.78
26978;BME280;56314;48.088;11.642;2023-07-28T11:15:16;94982.75;;;23.65;49.22
26978;BME280;56314;48.088;11.642;2023-07-28T11:17:48;94981.31;;;23.69;49.12
26978;BME280;56314;48.088;11.642;2023-07-28T11:22:39;94977.28;;;24.05;49.11
26978;BME280;56314;48.088;11.642;2023-07-28T11:25:06;94970.31;;;24.36;49.25
26978;BME280;56314;48.088;11.642;2023-07-28T11:27:35;94968.66;;;24.67;49.12
26978;BME280;56314;48.088;11.642;2023-07-28T11:30:01;94965.81;;;24.62;47.03
26978;BME280;56314;48.088;11.642;2023-07-28T11:32:29;94980.72;;;24.51;46.66
26978;BME280;56314;48.088;11.642;2023-07-28T11:34:55;94968.16;;;24.52;46.95
26978;BME280;56314;48.088;11.642;2023-07-28T11:37:21;94977.97;;;24.65;46.83
26978;BME280;56314;48.088;11.642;2023-07-28T11:39:46;94967.78;;;24.80;47.18
26978;BME280;56314;48.088;11.642;2023-07-28T11:42:13;94963.72;;;24.96;47.15
26978;BME280;56314;48.088;11.642;2023-07-28T11:44:39;94965.00;;;24.94;47.37
26978;BME280;56314;48.088;11.642;2023-07-28T11:47:05;94960.81;;;24.98;45.89
26978;BME280;56314;48.088;11.642;2023-07-28T11:49:30;94958.69;;;25.07;45.80
26978;BME280;56314;48.088;11.642;2023-07-28T11:51:56;94959.59;;;25.19;46.06
26978;BME280;56314;48.088;11.642;2023-07-28T11:54:25;94966.69;;;25.32;45.10
26978;BME280;56314;48.088;11.642;2023-07-28T11:56:53;94970.97;;;25.40;45.04
26978;BME280;56314;48.088;11.642;2023-07-28T11:59:19;94966.75;;;25.50;44.86
26978;BME280;56314;48.088;11.642;2023-07-28T12:01:59;94951.00;;;25.54;46.06
26978;BME280;56314;48.088;11.642;2023-07-28T12:04:29;94952.44;;;25.75;44.14
26978;BME280;56314;48.088;11.642;2023-07-28T12:09:51;94946.13;;;26.00;42.50
26978;BME280;56314;48.088;11.642;2023-07-28T12:12:19;94950.47;;;26.01;42.46
26978;BME280;56314;48.088;11.642;2023-07-28T12:14:45;94954.56;;;26.04;42.76
26978;BME280;56314;48.088;11.642;2023-07-28T12:17:14;94951.28;;;26.02;43.49
26978;BME280;56314;48.088;11.642;2023-07-28T12:20:07;94950.00;;;26.23;42.54
26978;BME280;56314;48.088;11.642;2023-07-28T12:22:43;94942.78;;;26.66;41.60
26978;BME280;56314;48.088;11.642;2023-07-28T12:25:09;94943.38;;;26.68;40.56
26978;BME280;56314;48.088;11.642;2023-07-28T12:27:35;94944.66;;;26.77;41.21
26978;BME280;56314;48.088;11.642;2023-07-28T12:30:01;94941.91;;;26.84;41.57
26978;BME280;56314;48.088;11.642;2023-07-28T12:32:27;94944.63;;;27.08;40.53
26978;BME280;56314;48.088;11.642;2023-07-28T12:34:52;94950.13;;;27.01;40.50
26978;BME280;56314;48.088;11.642;2023-07-28T12:37:18;94941.09;;;27.07;40.49
26978;BME280;56314;48.088;11.642;2023-07-28T12:39:44;94945.22;;;27.22;41.46
26978;BME280;56314;48.088;11.642;2023-07-28T12:42:11;94945.34;;;27.27;39.54
26978;BME280;56314;48.088;11.642;2023-07-28T12:44:37;94938.28;;;27.38;39.89
26978;BME280;56314;48.088;11.642;2023-07-28T12:47:03;94936.19;;;27.16;39.96
26978;BME280;56314;48.088;11.642;2023-07-28T12:49:29;94937.47;;;27.25;39.71
26978;BME280;56314;48.088;11.642;2023-07-28T12:51:56;94944.38;;;27.57;39.28
26978;BME280;56314;48.088;11.642;2023-07-28T12:54:22;94937.00;;;27.40;39.24
26978;BME280;56314;48.088;11.642;2023-07-28T12:56:48;94941.69;;;27.33;40.20
26978;BME280;56314;48.088;11.642;2023-07-28T12:59:14;94954.59;;;27.19;40.65
26978;BME280;56314;48.088;11.642;2023-07-28T13:01:39;94939.81;;;27.33;40.97
26978;BME280;56314;48.088;11.642;2023-07-28T13:04:04;94938.06;;;27.51;40.71
26978;BME280;56314;48.088;11.642;2023-07-28T13:06:29;94935.84;;;27.36;40.36
26978;BME280;56314;48.088;11.642;2023-07-28T13:08:55;94932.44;;;27.41;39.33